Time;durP1;ratioP1;P1;durP2;ratioP2;P2;SDS_P1;SDS_P2;PMS_P1;PMS_P2;Temp;Humidity;BMP_temperature;BMP_pressure;BME280_temperature;BME280_humidity;BME280_pressure;Samples;Min_cycle;Max_cycle;Signal;HPM_P1;HPM_P2
2022/09/09 00:00:43;;;;;;;;;1.75;1.75;;;;;17.58;67.43;100688.34;5090084;28;8943;-66
2022/09/09 00:03:17;;;;;;;;;1.00;1.00;;;;;17.54;67.89;100681.72;5090119;28;8850;-65
2022/09/09 00:06:05;;;;;;;;;0.25;0.25;;;;;17.55;67.72;100677.97;5076908;28;8974;-66
2022/09/09 00:08:50;;;;;;;;;1.00;1.00;;;;;17.52;67.69;100668.38;5069626;28;9545;-66
2022/09/09 00:11:26;;;;;;;;;2.00;2.00;;;;;17.45;67.75;100666.88;5069968;28;8815;-66
2022/09/09 00:14:04;;;;;;;;;2.00;2.00;;;;;17.47;67.93;100664.75;5069631;28;8950;-66
2022/09/09 00:16:36;;;;;;;;;2.50;2.50;;;;;17.44;67.82;100660.59;5069388;28;8855;-66
2022/09/09 00:19:20;;;;;;;;;1.75;1.75;;;;;17.44;67.86;100660.59;5069832;28;8832;-67
2022/09/09 00:22:17;;;;;;;;;2.00;2.00;;;;;17.42;67.95;100670.94;5069531;28;8838;-66
2022/09/09 00:24:49;;;;;;;;;2.00;2.00;;;;;17.43;68.34;100669.03;5068655;28;8878;-66
2022/09/09 00:27:31;;;;;;;;;2.00;2.00;;;;;17.40;67.95;100664.88;5069462;28;8859;-66
2022/09/09 00:30:24;;;;;;;;;1.75;1.75;;;;;17.35;68.26;100663.97;5071252;28;8854;-66
2022/09/09 00:32:59;;;;;;;;;2.00;1.50;;;;;17.26;68.49;100661.66;5069849;28;8861;-66
2022/09/09 00:35:33;;;;;;;;;6.00;5.00;;;;;17.17;69.00;100657.63;5069403;28;8862;-66
2022/09/09 00:38:13;;;;;;;;;2.50;2.50;;;;;17.21;69.44;100664.25;5069328;28;8827;-66
2022/09/09 00:40:48;;;;;;;;;3.00;2.75;;;;;17.21;68.83;100661.53;5069649;28;8945;-66
2022/09/09 00:43:31;;;;;;;;;3.33;3.33;;;;;17.19;69.18;100658.22;5085275;28;9685;-66
2022/09/09 00:46:28;;;;;;;;;2.00;2.00;;;;;17.20;68.99;100661.78;5088329;28;8927;-66
2022/09/09 00:49:29;;;;;;;;;4.00;4.00;;;;;17.20;69.30;100664.50;5089426;28;8837;-68
2022/09/09 00:52:03;;;;;;;;;2.25;2.25;;;;;17.20;69.53;100659.88;5092963;28;8965;-66
2022/09/09 00:54:41;;;;;;;;;3.25;3.25;;;;;17.21;69.49;100656.09;5092956;28;8930;-66
2022/09/09 00:57:24;;;;;;;;;3.00;2.75;;;;;17.19;69.41;100658.22;5088760;28;8844;-67
2022/09/09 00:59:57;;;;;;;;;4.75;4.00;;;;;17.19;69.60;100666.41;5071288;28;8830;-66
2022/09/09 01:02:39;;;;;;;;;5.33;5.33;;;;;17.15;69.37;100665.22;5088107;28;8815;-66
2022/09/09 01:05:22;;;;;;;;;3.75;2.75;;;;;17.17;69.50;100657.63;5105059;28;9775;-66
2022/09/09 01:07:49;;;;;;;;;5.50;5.50;;;;;17.17;69.64;100660.34;5072436;28;8819;-66
2022/09/09 01:10:35;;;;;;;;;3.33;3.33;;;;;17.17;69.69;100654.91;5077997;28;8838;-66
2022/09/09 01:13:12;;;;;;;;;9.33;6.33;;;;;17.18;69.61;100655.78;5125713;27;8901;-66
2022/09/09 01:15:41;;;;;;;;;5.67;4.00;;;;;17.19;69.47;100652.78;5091331;28;9750;-66
2022/09/09 01:18:12;;;;;;;;;4.33;4.33;;;;;17.18;69.62;100653.88;5091216;28;9399;-66
2022/09/09 01:21:00;;;;;;;;;5.33;5.00;;;;;17.12;69.88;100648.56;5091637;28;9037;-66
2022/09/09 01:24:18;;;;;;;;;4.00;4.00;;;;;17.07;69.78;100652.00;5091467;28;8915;-66
2022/09/09 01:27:13;;;;;;;;;5.75;5.75;;;;;17.01;70.23;100647.53;5046717;28;8912;-66
2022/09/09 01:29:39;;;;;;;;;4.67;4.67;;;;;17.03;70.52;100654.38;5049861;28;8950;-66
2022/09/09 01:32:45;;;;;;;;;5.00;5.00;;;;;17.04;70.03;100656.03;5071612;28;9028;-66
2022/09/09 01:35:39;;;;;;;;;12.00;9.00;;;;;17.01;70.05;100648.38;5090948;28;8906;-67
2022/09/09 01:38:07;;;;;;;;;6.67;6.67;;;;;16.99;70.63;100650.50;5124956;27;8984;-66
2022/09/09 01:40:34;;;;;;;;;8.33;8.33;;;;;16.95;70.83;100643.06;5075820;28;8930;-66
2022/09/09 01:43:01;;;;;;;;;5.00;5.00;;;;;16.96;70.74;100647.44;5087895;28;9010;-66
2022/09/09 01:45:28;;;;;;;;;4.00;4.00;;;;;16.96;70.42;100644.72;5070784;28;8847;-66
2022/09/09 01:47:56;;;;;;;;;9.67;8.67;;;;;16.97;70.71;100649.06;5071906;28;9762;-66
2022/09/09 01:50:41;;;;;;;;;8.00;8.00;;;;;17.00;70.44;100643.16;5087895;28;9080;-66
2022/09/09 01:53:09;;;;;;;;;9.67;9.00;;;;;16.96;70.74;100644.72;5070839;28;9752;-66
2022/09/09 01:55:46;;;;;;;;;5.00;5.00;;;;;16.99;70.23;100639.63;5104638;27;9025;-66
2022/09/09 01:58:46;;;;;;;;;8.67;8.67;;;;;16.95;70.31;100641.16;5070489;28;8905;-66
2022/09/09 02:01:37;;;;;;;;;8.67;8.67;;;;;16.88;70.36;100631.50;5069534;28;9120;-66
2022/09/09 02:04:18;;;;;;;;;9.00;8.00;;;;;16.83;70.94;100625.97;5070228;28;9077;-66
2022/09/09 02:06:47;;;;;;;;;9.00;9.00;;;;;16.79;70.94;100625.63;5069999;28;8994;-66
2022/09/09 02:09:23;;;;;;;;;10.67;10.67;;;;;16.78;71.21;100627.50;5070452;28;9032;-66
2022/09/09 02:12:00;;;;;;;;;9.33;9.33;;;;;16.79;70.99;100625.63;5070346;28;8911;-68
2022/09/09 02:14:43;;;;;;;;;10.00;9.33;;;;;16.73;70.92;100629.28;5089838;28;9137;-68
2022/09/09 02:17:14;;;;;;;;;5.67;5.00;;;;;16.74;71.19;100622.81;5090180;28;8981;-67
2022/09/09 02:20:02;;;;;;;;;7.00;5.33;;;;;16.77;71.46;100620.44;5090476;28;8935;-68
2022/09/09 02:22:43;;;;;;;;;9.33;7.00;;;;;16.79;71.26;100623.72;5124557;27;9086;-68
2022/09/09 02:25:15;;;;;;;;;9.00;7.00;;;;;16.80;70.79;100616.38;5090207;28;9057;-68
2022/09/09 02:27:44;;;;;;;;;8.00;8.00;;;;;16.77;70.84;100617.72;5088627;28;9976;-66
2022/09/09 02:30:12;;;;;;;;;8.00;8.00;;;;;16.75;71.29;100617.13;5090507;28;8907;-66
2022/09/09 02:32:48;;;;;;;;;8.00;8.00;;;;;16.74;71.10;100615.47;5090227;28;8990;-66
2022/09/09 02:35:22;;;;;;;;;8.00;8.00;;;;;16.76;71.17;100615.22;5124221;27;9427;-66
2022/09/09 02:37:52;;;;;;;;;10.00;7.33;;;;;16.74;71.31;100618.19;5124091;27;9161;-66
2022/09/09 02:40:20;;;;;;;;;5.00;5.00;;;;;16.80;71.24;100619.94;5124336;27;8900;-66
2022/09/09 02:42:55;;;;;;;;;6.67;5.67;;;;;16.84;70.96;100614.00;5122086;27;8911;-66
2022/09/09 02:45:30;;;;;;;;;8.00;5.25;;;;;16.82;70.91;100621.59;5091876;27;9701;-66
2022/09/09 02:48:13;;;;;;;;;11.33;8.00;;;;;16.79;70.85;100620.19;5083115;28;8870;-66
2022/09/09 02:50:56;;;;;;;;;6.67;4.67;;;;;16.78;70.91;100613.09;5051215;28;9801;-66
2022/09/09 02:53:42;;;;;;;;;7.67;7.33;;;;;16.76;71.07;100612.50;5049882;28;8928;-66
2022/09/09 02:56:17;;;;;;;;;9.00;6.00;;;;;16.72;71.05;100614.00;5066298;28;8943;-66
2022/09/09 02:58:46;;;;;;;;;7.00;7.00;;;;;16.70;71.02;100599.84;5059943;28;9023;-66
2022/09/09 03:01:13;;;;;;;;;7.00;7.00;;;;;16.70;70.73;100606.09;5070963;28;8854;-66
2022/09/09 03:03:42;;;;;;;;;5.67;5.67;;;;;16.69;70.78;100607.19;5069598;28;9004;-66
2022/09/09 03:06:12;;;;;;;;;6.00;6.00;;;;;16.70;70.95;100611.53;5069399;28;9086;-66
2022/09/09 03:08:39;;;;;;;;;10.33;8.00;;;;;16.66;71.00;100604.94;5083805;28;9760;-66
2022/09/09 03:11:06;;;;;;;;;7.67;7.67;;;;;16.61;70.81;100604.00;5089482;28;8906;-66
2022/09/09 03:13:37;;;;;;;;;7.00;7.00;;;;;16.60;70.45;100607.78;5089250;28;8972;-67
2022/09/09 03:16:04;;;;;;;;;5.50;5.50;;;;;16.58;70.64;100610.75;5123505;27;9041;-66
2022/09/09 03:18:36;;;;;;;;;3.50;3.50;;;;;16.59;70.68;100611.56;5087969;28;8832;-66
2022/09/09 03:21:02;;;;;;;;;4.67;4.67;;;;;16.56;70.80;100604.72;5089588;28;8821;-67
2022/09/09 03:23:29;;;;;;;;;7.00;6.00;;;;;16.55;70.71;100603.06;5072708;28;9644;-66
2022/09/09 03:25:58;;;;;;;;;6.67;6.67;;;;;16.56;70.85;100608.25;5089500;28;9001;-66
2022/09/09 03:28:35;;;;;;;;;6.67;5.33;;;;;16.54;70.83;100604.13;5123343;27;9181;-66
2022/09/09 03:31:03;;;;;;;;;7.00;6.00;;;;;16.51;70.81;100602.72;5089287;28;9636;-66
2022/09/09 03:33:36;;;;;;;;;5.33;4.00;;;;;16.50;70.78;100598.34;5089428;28;9134;-66
2022/09/09 03:36:05;;;;;;;;;7.00;6.33;;;;;16.49;70.96;100599.44;5089034;28;8917;-66
2022/09/09 03:38:31;;;;;;;;;5.00;5.00;;;;;16.52;70.95;100600.81;5090426;28;9715;-66
2022/09/09 03:40:59;;;;;;;;;5.33;5.33;;;;;16.52;70.82;100595.38;5089338;28;8965;-66
2022/09/09 03:43:27;;;;;;;;;7.00;6.00;;;;;16.49;70.72;100595.88;5089242;28;9089;-66
2022/09/09 03:45:56;;;;;;;;;9.00;8.67;;;;;16.50;71.00;100597.53;5085371;28;9096;-66
2022/09/09 03:48:26;;;;;;;;;10.00;9.00;;;;;16.48;70.93;100595.03;5048862;28;9231;-66
2022/09/09 03:50:55;;;;;;;;;6.67;6.67;;;;;16.46;70.72;100599.06;5082382;28;9213;-66
2022/09/09 03:53:24;;;;;;;;;8.00;6.33;;;;;16.42;70.98;100595.19;5082686;28;9000;-66
2022/09/09 03:55:59;;;;;;;;;7.00;7.00;;;;;16.37;71.23;100595.09;5048768;28;8917;-66
2022/09/09 03:58:27;;;;;;;;;7.33;6.00;;;;;16.37;70.91;100595.09;5065276;28;9037;-66
2022/09/09 04:01:02;;;;;;;;;10.00;8.00;;;;;16.34;71.12;100592.84;5082374;28;8914;-66
2022/09/09 04:03:29;;;;;;;;;14.00;10.33;;;;;16.30;70.89;100592.47;5083321;28;9063;-66
2022/09/09 04:05:58;;;;;;;;;6.00;5.67;;;;;16.30;71.04;100592.47;5082042;28;9237;-66
2022/09/09 04:08:31;;;;;;;;;10.33;7.00;;;;;16.27;71.19;100582.91;5065234;28;9914;-66
2022/09/09 04:11:01;;;;;;;;;6.00;6.00;;;;;16.26;71.62;100581.25;5080359;28;9038;-66
2022/09/09 04:13:28;;;;;;;;;7.00;5.67;;;;;16.27;71.02;100579.38;5088845;28;8976;-66
2022/09/09 04:15:58;;;;;;;;;5.00;5.00;;;;;16.28;71.51;100575.59;5088709;28;9008;-66
2022/09/09 04:18:27;;;;;;;;;7.00;7.00;;;;;16.28;71.20;100581.84;5089858;28;9219;-65
2022/09/09 04:20:56;;;;;;;;;6.67;6.67;;;;;16.27;71.30;100577.47;5122903;28;9068;-66
2022/09/09 04:23:28;;;;;;;;;9.33;6.00;;;;;16.28;71.18;100579.13;5065449;28;9072;-66
2022/09/09 04:25:58;;;;;;;;;5.00;5.00;;;;;16.26;71.19;100575.84;5071211;28;9004;-66
2022/09/09 04:28:29;;;;;;;;;6.00;6.00;;;;;16.28;71.47;100572.88;5072100;28;8989;-66
2022/09/09 04:31:03;;;;;;;;;6.00;5.00;;;;;16.27;71.30;100573.94;5072470;28;9078;-66
2022/09/09 04:33:31;;;;;;;;;5.33;3.00;;;;;16.25;71.52;100576.91;5073614;28;9159;-66
2022/09/09 04:35:57;;;;;;;;;4.67;4.00;;;;;16.22;71.47;100565.69;5072200;28;8981;-66
2022/09/09 04:38:25;;;;;;;;;5.00;4.00;;;;;16.20;71.75;100563.19;5071942;28;8992;-66
2022/09/09 04:40:54;;;;;;;;;5.00;4.33;;;;;16.21;71.91;100561.31;5072119;28;8973;-66
2022/09/09 04:43:22;;;;;;;;;3.00;3.00;;;;;16.20;71.61;100568.63;5072019;28;9118;-66
2022/09/09 04:45:51;;;;;;;;;6.00;6.00;;;;;16.19;71.85;100563.44;5072021;28;8894;-68
2022/09/09 04:48:20;;;;;;;;;6.00;6.00;;;;;16.14;71.85;100561.44;5071759;28;8996;-66
2022/09/09 04:50:59;;;;;;;;;3.25;3.25;;;;;16.08;71.16;100562.38;5072608;28;8986;-66
2022/09/09 04:53:26;;;;;;;;;3.00;3.00;;;;;16.02;71.65;100556.03;5072174;28;8805;-66
2022/09/09 04:56:16;;;;;;;;;4.00;3.67;;;;;16.03;71.70;100565.00;5072191;28;8831;-66
2022/09/09 04:58:50;;;;;;;;;4.33;3.00;;;;;16.02;71.58;100557.91;5071754;28;9060;-69
2022/09/09 05:01:20;;;;;;;;;2.00;2.00;;;;;16.02;71.83;100552.47;5071831;28;8918;-67
2022/09/09 05:03:49;;;;;;;;;3.00;3.00;;;;;16.03;71.56;100554.13;5071865;28;8831;-66
2022/09/09 05:06:21;;;;;;;;;4.50;4.50;;;;;16.03;71.36;100552.22;5071581;28;8826;-66
2022/09/09 05:08:52;;;;;;;;;2.75;2.75;;;;;16.02;71.22;100560.63;5076726;28;8817;-66
2022/09/09 05:11:25;;;;;;;;;0.00;0.00;;;;;16.02;71.47;100558.72;5079571;28;8834;-66
2022/09/09 05:13:54;;;;;;;;;4.67;4.67;;;;;16.00;71.55;100555.44;5088568;28;8823;-66
2022/09/09 05:16:22;;;;;;;;;4.33;4.00;;;;;15.98;71.58;100559.44;5072864;28;8994;-66
2022/09/09 05:18:51;;;;;;;;;3.33;2.67;;;;;15.93;71.61;100548.47;5071721;28;8928;-66
2022/09/09 05:21:20;;;;;;;;;3.00;3.00;;;;;15.95;71.54;100547.16;5071662;28;8942;-66
2022/09/09 05:23:47;;;;;;;;;2.00;2.00;;;;;15.96;71.28;100548.84;5088904;28;9687;-66
2022/09/09 05:26:16;;;;;;;;;6.00;4.00;;;;;15.95;71.36;100552.59;5091477;28;8947;-67
2022/09/09 05:28:46;;;;;;;;;2.00;2.00;;;;;15.94;71.31;100560.97;5091473;28;8996;-66
2022/09/09 05:31:14;;;;;;;;;2.67;2.00;;;;;15.97;71.42;100557.81;5091620;28;8922;-66
2022/09/09 05:33:45;;;;;;;;;4.75;1.25;;;;;15.90;71.55;100546.22;5091448;28;9677;-66
2022/09/09 05:36:16;;;;;;;;;6.00;2.25;;;;;15.92;71.82;100544.09;5125125;27;8847;-66
2022/09/09 05:38:44;;;;;;;;;4.00;3.00;;;;;15.95;71.45;100554.47;5116935;27;8831;-67
2022/09/09 05:41:12;;;;;;;;;2.50;2.00;;;;;15.89;71.80;100545.41;5071124;28;8843;-66
2022/09/09 05:43:39;;;;;;;;;3.33;3.00;;;;;15.88;71.54;100545.63;5105030;28;8961;-66
2022/09/09 05:46:14;;;;;;;;;2.00;2.00;;;;;15.86;72.07;100550.47;5070865;28;8998;-66
2022/09/09 05:48:43;;;;;;;;;3.00;3.00;;;;;15.87;71.89;100546.69;5090330;28;8836;-66
2022/09/09 05:51:12;;;;;;;;;5.00;3.50;;;;;15.90;71.84;100546.22;5125395;27;8957;-67
2022/09/09 05:53:39;;;;;;;;;3.75;3.75;;;;;15.94;71.95;100547.41;5092260;28;8836;-66
2022/09/09 05:56:25;;;;;;;;;2.50;2.00;;;;;15.97;71.93;100550.47;5090893;28;8922;-66
2022/09/09 05:58:54;;;;;;;;;1.00;1.00;;;;;16.00;72.20;100558.16;5092285;28;8817;-66
2022/09/09 06:01:24;;;;;;;;;5.25;5.00;;;;;16.01;72.04;100557.09;5076986;28;8813;-66
2022/09/09 06:03:51;;;;;;;;;3.00;2.00;;;;;15.97;71.77;100550.47;5050564;28;8846;-66
2022/09/09 06:06:22;;;;;;;;;2.50;1.75;;;;;15.95;72.21;100554.47;5087850;22;8886;-64
2022/09/09 06:08:57;;;;;;;;;4.00;4.00;;;;;15.98;72.14;100559.44;5082059;28;9677;-64
2022/09/09 06:11:28;;;;;;;;;3.50;3.50;;;;;15.99;72.19;100544.81;5052735;28;9022;-63
2022/09/09 06:13:54;;;;;;;;;4.00;2.00;;;;;16.04;71.93;100547.63;5050879;28;8829;-65
2022/09/09 06:16:23;;;;;;;;;2.25;2.25;;;;;16.07;71.86;100555.31;5050595;28;8962;-63
2022/09/09 06:18:51;;;;;;;;;1.00;1.00;;;;;16.09;72.24;100553.19;5050722;28;9531;-65
2022/09/09 06:21:26;;;;;;;;;4.25;2.25;;;;;16.07;71.97;100553.41;5047482;28;8834;-64
2022/09/09 06:23:54;;;;;;;;;2.67;2.00;;;;;16.07;72.25;100547.97;5048817;28;8830;-65
2022/09/09 06:26:32;;;;;;;;;6.00;3.50;;;;;16.13;72.43;100556.25;5048797;28;8928;-65
2022/09/09 06:29:03;;;;;;;;;3.00;3.00;;;;;16.19;72.46;100566.97;5045803;28;8867;-65
2022/09/09 06:31:33;;;;;;;;;4.00;3.00;;;;;16.25;71.99;100563.31;5029043;28;8840;-65
2022/09/09 06:34:07;;;;;;;;;2.00;2.00;;;;;16.23;72.04;100560.00;5045690;28;9742;-64
2022/09/09 06:36:38;;;;;;;;;5.33;3.00;;;;;16.15;72.21;100552.22;5045334;28;9128;-65
2022/09/09 06:39:08;;;;;;;;;2.00;2.00;;;;;16.16;72.23;100555.75;5028740;28;8922;-65
2022/09/09 06:41:40;;;;;;;;;3.00;3.00;;;;;16.10;72.58;100552.13;5058643;28;8848;-65
2022/09/09 06:44:13;;;;;;;;;2.50;2.50;;;;;16.16;72.71;100562.00;5065537;28;9148;-65
2022/09/09 06:46:40;;;;;;;;;2.00;2.00;;;;;16.20;72.49;100556.94;5048091;28;8853;-64
2022/09/09 06:49:09;;;;;;;;;2.75;2.25;;;;;16.27;72.34;100565.78;5048076;28;8965;-65
2022/09/09 06:51:42;;;;;;;;;1.50;1.25;;;;;16.30;72.26;100566.16;5048633;28;8833;-64
2022/09/09 06:54:12;;;;;;;;;2.75;2.75;;;;;16.39;72.31;100560.34;5048944;28;8872;-64
2022/09/09 06:56:42;;;;;;;;;1.25;1.25;;;;;16.45;72.18;100564.84;5048286;28;8860;-65
2022/09/09 06:59:19;;;;;;;;;2.00;1.00;;;;;16.53;72.16;100554.41;5048710;28;8842;-65
2022/09/09 07:01:46;;;;;;;;;3.00;2.00;;;;;16.62;71.77;100565.72;5046988;28;9542;-65
2022/09/09 07:04:18;;;;;;;;;1.75;1.75;;;;;16.65;71.21;100558.97;5064871;28;9687;-65
2022/09/09 07:06:46;;;;;;;;;5.00;2.50;;;;;16.64;71.48;100555.41;5048051;28;9597;-64
2022/09/09 07:09:16;;;;;;;;;3.00;3.00;;;;;16.53;71.58;100551.69;5065113;28;8830;-64
2022/09/09 07:11:48;;;;;;;;;3.00;3.00;;;;;16.54;72.00;100561.50;5050107;28;8853;-64
2022/09/09 07:14:18;;;;;;;;;2.75;2.75;;;;;16.58;72.11;100553.69;5047654;28;8841;-65
2022/09/09 07:16:48;;;;;;;;;4.50;2.50;;;;;16.60;71.76;100561.59;5048082;28;8837;-65
2022/09/09 07:19:16;;;;;;;;;6.00;6.00;;;;;16.63;71.71;100551.06;5048373;28;8829;-65
2022/09/09 07:21:45;;;;;;;;;3.75;3.75;;;;;16.63;71.80;100553.78;5049875;28;8985;-65
2022/09/09 07:24:14;;;;;;;;;4.00;4.00;;;;;16.59;71.94;100552.59;5048500;28;8880;-65
2022/09/09 07:26:41;;;;;;;;;4.25;3.00;;;;;16.59;71.74;100555.31;5047946;28;8861;-65
2022/09/09 07:29:08;;;;;;;;;3.00;3.00;;;;;16.63;71.93;100544.81;5064328;28;8876;-64
2022/09/09 07:31:37;;;;;;;;;6.00;4.75;;;;;16.67;71.75;100554.13;5049949;28;8826;-65
2022/09/09 07:34:08;;;;;;;;;7.00;4.67;;;;;16.66;71.92;100547.03;5048495;28;8960;-65
2022/09/09 07:36:37;;;;;;;;;8.00;6.00;;;;;16.63;71.81;100552.94;5047795;28;8936;-64
2022/09/09 07:39:12;;;;;;;;;6.67;5.00;;;;;16.66;72.08;100550.59;5050035;28;8910;-64
2022/09/09 07:41:45;;;;;;;;;4.33;4.33;;;;;16.70;71.78;100551.75;5048128;28;9651;-64
2022/09/09 07:44:19;;;;;;;;;7.25;5.50;;;;;16.73;71.94;100551.31;5048228;28;8934;-64
2022/09/09 07:46:48;;;;;;;;;10.50;7.75;;;;;16.67;71.91;100548.69;5048143;28;8880;-64
2022/09/09 07:49:19;;;;;;;;;6.67;6.33;;;;;16.66;71.97;100545.16;5048162;28;8948;-64
2022/09/09 07:51:54;;;;;;;;;4.67;4.67;;;;;16.69;72.09;100560.97;5064256;28;8933;-64
2022/09/09 07:54:23;;;;;;;;;10.33;8.00;;;;;16.65;71.95;100551.66;5047886;28;8915;-65
2022/09/09 07:56:52;;;;;;;;;8.00;8.00;;;;;16.68;72.24;100553.88;5046741;28;8925;-64
2022/09/09 07:59:21;;;;;;;;;8.00;6.33;;;;;16.68;71.65;100548.44;5050047;28;8929;-65
2022/09/09 08:01:54;;;;;;;;;4.75;4.75;;;;;16.74;71.73;100554.84;5067670;28;8998;-65
2022/09/09 08:04:25;;;;;;;;;6.67;5.67;;;;;16.77;72.06;100551.63;5068564;28;8964;-66
2022/09/09 08:06:55;;;;;;;;;6.33;6.33;;;;;16.82;71.43;100553.63;5047941;28;9156;-66
2022/09/09 08:09:28;;;;;;;;;6.50;6.25;;;;;16.81;71.45;100552.78;5048770;28;8937;-65
2022/09/09 08:12:06;;;;;;;;;6.50;6.50;;;;;16.86;71.82;100549.38;5032171;28;8824;-64
2022/09/09 08:14:33;;;;;;;;;10.00;5.00;;;;;16.90;71.67;100545.91;5048636;28;8829;-64
2022/09/09 08:17:00;;;;;;;;;8.33;6.33;;;;;16.97;71.44;100549.28;5032096;28;8975;-63
2022/09/09 08:19:33;;;;;;;;;10.33;10.00;;;;;16.91;71.51;100542.13;5048666;28;9001;-64
2022/09/09 08:22:01;;;;;;;;;14.67;12.67;;;;;16.93;71.36;100544.59;5065501;28;8952;-66
2022/09/09 08:24:29;;;;;;;;;9.00;9.00;;;;;16.97;71.51;100543.84;5044435;28;8991;-66
2022/09/09 08:26:56;;;;;;;;;7.25;6.00;;;;;17.05;71.56;100540.75;5048057;28;9625;-64
2022/09/09 08:29:23;;;;;;;;;10.33;9.33;;;;;17.10;71.08;100550.09;5031775;28;9605;-63
2022/09/09 08:31:54;;;;;;;;;5.50;5.50;;;;;17.14;71.06;100545.81;5031875;28;8929;-64
2022/09/09 08:34:21;;;;;;;;;8.33;8.33;;;;;17.20;70.67;100545.63;5045731;28;8955;-66
2022/09/09 08:36:50;;;;;;;;;7.25;7.00;;;;;17.21;70.43;100554.63;5051582;28;8958;-65
2022/09/09 08:39:21;;;;;;;;;6.33;6.33;;;;;17.19;70.63;100557.59;5052138;28;8833;-66
2022/09/09 08:42:05;;;;;;;;;10.00;8.33;;;;;17.20;70.15;100556.50;5052796;28;8906;-65
2022/09/09 08:44:41;;;;;;;;;8.75;8.75;;;;;17.13;70.72;100565.88;5051072;28;9007;-64
2022/09/09 08:47:39;;;;;;;;;7.00;6.75;;;;;17.15;70.35;100561.88;5050213;28;8850;-64
2022/09/09 08:50:48;;;;;;;;;9.50;8.50;;;;;17.14;70.30;100567.56;5034442;28;8821;-63
2022/09/09 08:53:32;;;;;;;;;7.25;7.25;;;;;17.14;70.23;100567.56;5067748;28;8927;-64
2022/09/09 08:56:11;;;;;;;;;8.50;8.25;;;;;17.14;70.57;100573.00;5051128;28;9609;-64
2022/09/09 08:58:57;;;;;;;;;8.00;7.67;;;;;17.13;70.44;100572.16;5067793;28;8830;-64
2022/09/09 09:01:58;;;;;;;;;8.75;7.25;;;;;17.16;70.14;100571.66;5038114;28;8904;-63
2022/09/09 09:04:32;;;;;;;;;7.25;7.25;;;;;17.16;70.74;100570.84;5047580;28;8832;-63
2022/09/09 09:07:26;;;;;;;;;8.00;8.00;;;;;17.14;70.55;100570.28;5049071;28;8822;-65
2022/09/09 09:10:39;;;;;;;;;10.00;8.00;;;;;17.10;70.57;100585.44;5050731;28;8911;-63
2022/09/09 09:13:20;;;;;;;;;9.67;9.67;;;;;17.11;70.65;100577.03;5029388;28;9128;-65
2022/09/09 09:15:56;;;;;;;;;13.00;11.67;;;;;17.11;70.21;100568.03;5067428;28;9761;-65
2022/09/09 09:18:23;;;;;;;;;9.00;7.50;;;;;17.12;70.73;100569.69;5051365;28;8999;-66
2022/09/09 09:21:15;;;;;;;;;8.00;7.50;;;;;17.18;70.58;100571.44;5030744;28;8838;-66
2022/09/09 09:23:51;;;;;;;;;6.50;6.50;;;;;17.22;70.31;100578.88;5030855;28;8840;-64
2022/09/09 09:26:20;;;;;;;;;8.00;7.25;;;;;17.18;70.08;100575.00;5047300;28;8847;-65
2022/09/09 09:28:47;;;;;;;;;9.00;7.00;;;;;17.21;69.93;100573.66;5030814;28;9557;-65
2022/09/09 09:31:19;;;;;;;;;10.50;9.00;;;;;17.21;69.86;100574.47;5031000;28;8876;-64
2022/09/09 09:33:50;;;;;;;;;9.00;7.00;;;;;17.18;70.06;100588.59;5030688;28;8921;-64
2022/09/09 09:36:20;;;;;;;;;8.25;8.00;;;;;17.13;70.14;100577.59;5047922;28;8923;-65
2022/09/09 09:38:59;;;;;;;;;8.50;6.75;;;;;17.08;70.41;100582.13;5050155;28;8829;-66
2022/09/09 09:41:47;;;;;;;;;9.00;9.00;;;;;16.97;70.24;100581.91;5047074;28;9446;-65
2022/09/09 09:44:29;;;;;;;;;4.75;4.75;;;;;17.10;70.13;100588.97;5014186;28;9084;-65
2022/09/09 09:47:12;;;;;;;;;4.00;4.00;;;;;17.18;69.78;100585.88;5030143;28;9569;-64
2022/09/09 09:49:59;;;;;;;;;9.25;8.00;;;;;17.27;69.67;100592.56;5030454;28;8852;-63
2022/09/09 09:52:34;;;;;;;;;5.75;5.00;;;;;17.24;69.78;100584.06;5030325;28;8971;-64
2022/09/09 09:55:04;;;;;;;;;7.25;5.00;;;;;17.20;70.12;100585.63;5046783;28;8844;-64
2022/09/09 09:57:34;;;;;;;;;6.75;6.00;;;;;17.19;69.76;100584.78;5045854;28;8854;-64
2022/09/09 10:00:14;;;;;;;;;4.00;4.00;;;;;17.21;69.94;100568.22;5049992;28;8919;-65
2022/09/09 10:02:44;;;;;;;;;6.33;6.33;;;;;17.26;69.71;100580.03;5066437;28;8883;-64
2022/09/09 10:05:26;;;;;;;;;8.00;6.00;;;;;17.35;70.22;100576.91;5065109;28;8987;-64
2022/09/09 10:08:09;;;;;;;;;8.75;7.00;;;;;17.39;70.48;100580.78;5049345;28;9060;-66
2022/09/09 10:10:59;;;;;;;;;6.75;4.50;;;;;17.45;71.29;100579.78;5039191;28;8824;-66
2022/09/09 10:13:49;;;;;;;;;6.00;5.50;;;;;17.41;71.53;100578.63;5030973;28;8843;-64
2022/09/09 10:16:18;;;;;;;;;7.00;5.25;;;;;17.46;71.45;100573.28;5030829;28;8853;-64
2022/09/09 10:19:06;;;;;;;;;5.50;5.50;;;;;17.45;71.35;100569.72;5030507;28;8879;-65
2022/09/09 10:21:51;;;;;;;;;8.75;8.00;;;;;17.40;70.45;100572.38;5030724;28;8820;-66
2022/09/09 10:24:44;;;;;;;;;5.25;4.25;;;;;17.53;70.36;100571.22;5030147;28;8860;-65
2022/09/09 10:27:25;;;;;;;;;9.25;6.75;;;;;17.65;69.37;100582.03;5031194;28;8889;-63
2022/09/09 10:30:29;;;;;;;;;6.00;5.00;;;;;17.58;69.38;100573.19;5065673;28;9538;-63
2022/09/09 10:33:05;;;;;;;;;6.75;6.75;;;;;17.64;68.91;100567.59;5017998;28;9075;-65
2022/09/09 10:35:52;;;;;;;;;7.00;5.50;;;;;17.62;68.85;100585.25;5047701;28;9554;-66
2022/09/09 10:38:38;;;;;;;;;4.50;4.50;;;;;17.60;69.22;100581.94;5030096;28;8821;-65
2022/09/09 10:41:17;;;;;;;;;3.50;3.50;;;;;17.68;69.28;100581.53;5045461;28;8848;-64
2022/09/09 10:44:13;;;;;;;;;7.50;3.50;;;;;17.75;69.09;100560.47;5030450;28;8947;-67
2022/09/09 10:47:04;;;;;;;;;5.00;4.00;;;;;17.75;69.29;100574.06;5029858;28;8879;-66
2022/09/09 10:50:08;;;;;;;;;3.00;3.00;;;;;17.84;69.16;100575.28;5051736;28;8896;-65
2022/09/09 10:52:55;;;;;;;;;6.50;5.00;;;;;17.74;68.39;100573.25;5049831;28;8854;-64
2022/09/09 10:55:33;;;;;;;;;3.50;3.00;;;;;17.83;68.69;100567.38;5049810;28;8875;-66
2022/09/09 10:58:03;;;;;;;;;7.75;7.00;;;;;17.89;68.54;100571.81;5049705;28;8826;-64
2022/09/09 11:00:37;;;;;;;;;4.00;3.75;;;;;17.94;68.55;100575.44;5050082;28;8830;-65
2022/09/09 11:03:04;;;;;;;;;4.50;4.00;;;;;17.92;68.49;100574.06;5049858;28;8832;-66
2022/09/09 11:05:42;;;;;;;;;4.00;4.00;;;;;18.00;68.45;100574.44;5048124;28;8826;-67
2022/09/09 11:08:18;;;;;;;;;6.75;5.00;;;;;18.05;68.68;100573.69;5034131;28;8838;-67
2022/09/09 11:11:21;;;;;;;;;5.25;5.00;;;;;18.13;68.14;100567.81;5049786;28;8923;-66
2022/09/09 11:14:08;;;;;;;;;7.25;5.50;;;;;18.07;68.23;100568.00;5049527;28;8837;-65
2022/09/09 11:16:45;;;;;;;;;4.75;3.75;;;;;18.03;68.14;100565.78;5064277;28;9488;-66
2022/09/09 11:19:27;;;;;;;;;7.25;7.25;;;;;18.01;67.71;100567.91;5049433;28;8899;-67
2022/09/09 11:21:57;;;;;;;;;5.25;5.25;;;;;17.93;67.85;100560.19;5029597;28;8836;-65
2022/09/09 11:24:45;;;;;;;;;5.00;5.00;;;;;17.94;68.02;100564.53;5029702;28;8836;-66
2022/09/09 11:27:20;;;;;;;;;4.00;4.00;;;;;17.98;68.32;100564.88;5029308;28;8923;-64
2022/09/09 11:30:12;;;;;;;;;6.00;5.00;;;;;17.94;68.55;100569.16;5033229;28;9515;-65
2022/09/09 11:33:24;;;;;;;;;4.00;4.00;;;;;17.90;68.79;100566.13;5049421;28;8826;-64
2022/09/09 11:36:20;;;;;;;;;4.75;3.00;;;;;17.97;68.76;100572.22;5007490;28;8861;-64
2022/09/09 11:38:52;;;;;;;;;4.00;4.00;;;;;17.91;68.97;100567.78;5031720;28;8857;-65
2022/09/09 11:41:21;;;;;;;;;4.00;4.00;;;;;17.93;69.05;100559.34;5050189;28;8911;-66
2022/09/09 11:44:09;;;;;;;;;3.00;3.00;;;;;17.84;69.01;100561.69;5042346;28;8836;-65
2022/09/09 11:46:39;;;;;;;;;4.00;4.00;;;;;17.96;69.04;100567.84;5029029;28;8841;-65
2022/09/09 11:49:23;;;;;;;;;3.00;3.00;;;;;18.21;69.36;100572.84;5029563;28;8868;-66
2022/09/09 11:51:49;;;;;;;;;3.00;3.00;;;;;18.31;68.73;100569.44;5029531;28;8855;-66
2022/09/09 11:54:29;;;;;;;;;4.50;4.50;;;;;18.20;68.63;100581.28;5029473;28;8853;-66
2022/09/09 11:56:56;;;;;;;;;3.00;3.00;;;;;18.13;68.74;100576.00;5028172;28;8832;-65
2022/09/09 11:59:29;;;;;;;;;2.00;2.00;;;;;18.06;68.85;100571.78;5030159;28;8927;-65
2022/09/09 12:02:01;;;;;;;;;3.00;3.00;;;;;18.11;68.72;100571.84;5029214;28;8832;-65
2022/09/09 12:04:37;;;;;;;;;4.00;4.00;;;;;18.15;69.11;100568.41;5028899;28;8824;-65
2022/09/09 12:07:24;;;;;;;;;2.25;2.25;;;;;18.18;68.98;100572.50;5022142;23;8897;-67
2022/09/09 12:10:14;;;;;;;;;4.25;3.00;;;;;18.31;68.87;100576.78;5010986;28;8849;-66